createdAt,value
2024-05-09T00:00:02.428Z,1.790002465
2024-05-09T00:05:03.003Z,1.629998803
2024-05-09T00:10:03.152Z,1.709985375
2024-05-09T00:15:02.433Z,1.589990258
2024-05-09T00:20:05.212Z,1.469995141
2024-05-09T00:25:02.190Z,1.629998803
2024-05-09T00:30:04.130Z,1.429986596
2024-05-09T00:35:02.684Z,1.33001101
2024-05-09T00:40:03.552Z,1.24999392
2024-05-09T00:45:02.864Z,1.369989038
2024-05-09T00:50:04.304Z,1.290002465
2024-05-09T00:55:02.897Z,1.290002465
2024-05-09T01:00:02.218Z,1.170007348
2024-05-09T01:05:02.606Z,0.969995141
2024-05-09T01:10:03.266Z,1.050012231
2024-05-09T01:15:02.710Z,1.129998803
2024-05-09T01:20:05.753Z,0.909997582
2024-05-09T01:25:02.344Z,0.83001101
2024-05-09T01:30:04.076Z,0.869989038
2024-05-09T01:35:03.108Z,0.83001101
2024-05-09T01:40:02.287Z,0.709985375
2024-05-09T01:45:02.549Z,0.550012231
2024-05-09T01:50:03.501Z,0.589990258
2024-05-09T01:55:06.273Z,0.469995111
2024-05-09T02:00:03.719Z,0.409997553
2024-05-09T02:05:03.310Z,0.409997553
2024-05-09T02:10:06.589Z,0.290002435
2024-05-09T02:15:02.786Z,0.33001098
2024-05-09T02:20:03.683Z,0.209985346
2024-05-09T02:25:03.024Z,0.290002435
2024-05-09T02:30:02.303Z,0.290002435
2024-05-09T02:35:02.670Z,0.249993891
2024-05-09T02:40:03.484Z,0.209985346
2024-05-09T02:45:02.581Z,0.089990236
2024-05-09T02:50:03.113Z,0.050012209
2024-05-09T02:55:02.764Z,0.170007318
2024-05-09T03:00:03.601Z,0.170007318
2024-05-09T03:05:02.964Z,0.209985346
2024-05-09T03:10:02.231Z,0.010003662
2024-05-09T03:15:02.448Z,-0.150000006
2024-05-09T03:20:04.132Z,-0.030004883
2024-05-09T03:25:02.414Z,-0.070013426
2024-05-09T03:30:04.063Z,-0.229986578
2024-05-09T03:35:02.759Z,-0.190008551
2024-05-09T03:40:03.097Z,-0.269995123
2024-05-09T03:45:02.357Z,-0.190008551
2024-05-09T03:50:04.409Z,-0.190008551
2024-05-09T03:55:02.762Z,-0.290014654
2024-05-09T04:00:05.570Z,-0.229986578
2024-05-09T04:05:03.019Z,-0.269995123
2024-05-09T04:10:02.924Z,-0.269995123
2024-05-09T04:15:02.174Z,-0.150000006
2024-05-09T04:20:02.468Z,-0.109991454
2024-05-09T04:25:03.099Z,-0.070013426
2024-05-09T04:30:02.320Z,-0.150000006
2024-05-09T04:40:03.113Z,0.050012209
2024-05-09T04:45:02.391Z,0.129998773
2024-05-09T04:50:02.725Z,0.290002435
2024-05-09T04:55:02.988Z,0.429986566
2024-05-09T05:00:03.039Z,0.589990258
2024-05-09T05:05:02.492Z,0.670007348
2024-05-09T05:10:04.477Z,0.790002465
2024-05-09T05:15:02.890Z,0.950006127
2024-05-09T05:20:02.506Z,1.170007348
2024-05-09T05:25:03.009Z,1.369989038
2024-05-09T05:30:02.183Z,1.629998803
2024-05-09T05:35:02.435Z,1.74999392
2024-05-09T05:40:03.271Z,1.890008569
2024-05-09T05:45:02.487Z,2.209985256
2024-05-09T05:50:03.053Z,2.349999905
2024-05-09T05:55:02.467Z,2.61000967
2024-05-09T06:00:04.143Z,2.849999905
2024-05-09T06:05:02.830Z,3.189996243
2024-05-09T06:10:02.923Z,3.369988918
2024-05-09T06:15:02.255Z,3.550012112
2024-05-09T06:20:02.611Z,3.749993801
2024-05-09T06:25:02.208Z,4.050012112
2024-05-09T06:30:02.522Z,4.230004787
2024-05-09T06:35:02.855Z,4.490014553
2024-05-09T06:40:04.150Z,4.709985256
2024-05-09T06:45:02.931Z,4.969995022
2024-05-09T06:50:02.167Z,5.11000967
2024-05-09T06:55:02.559Z,5.290002346
2024-05-09T07:00:02.972Z,5.629998684
2024-05-09T07:05:03.106Z,5.950006008
2024-05-09T07:10:02.496Z,6.11000967
2024-05-09T07:15:02.739Z,6.469995022
2024-05-09T07:20:03.097Z,6.52999258
2024-05-09T07:25:02.305Z,6.730004787
2024-05-09T07:30:05.389Z,6.730004787
2024-05-09T07:35:02.799Z,7.149987698
2024-05-09T07:40:04.253Z,7.649987698
2024-05-09T07:45:21.307Z,8.230005264
2024-05-09T07:51:51.333Z,8.510004044
2024-05-09T07:55:02.415Z,8.969995499
2024-05-09T08:00:03.318Z,9.529993057
2024-05-09T08:05:02.781Z,10.17000771
2024-05-09T08:10:04.215Z,10.12999916
2024-05-09T08:15:02.460Z,10.30999184
2024-05-09T08:20:05.059Z,10.74999428
2024-05-09T08:25:02.932Z,11.27001381
2024-05-09T08:30:02.189Z,11.5700016
2024-05-09T08:35:02.448Z,12.17000771
2024-05-09T08:40:03.963Z,11.99001503
2024-05-09T08:45:02.386Z,11.95000648
2024-05-09T08:50:03.111Z,12.51000404
2024-05-09T08:55:02.268Z,13.49001503
2024-05-09T09:00:03.586Z,13.58999062
2024-05-09T09:05:03.114Z,13.89000893
2024-05-09T09:10:02.642Z,13.85000038
2024-05-09T09:15:02.436Z,13.70998573
2024-05-09T09:20:02.866Z,13.95000648
2024-05-09T09:25:02.120Z,14.61001015
2024-05-09T09:30:02.382Z,14.90999794
2024-05-09T09:35:02.640Z,14.39000893
2024-05-09T09:40:03.246Z,16.39000893
2024-05-09T09:45:05.496Z,16.79000282
2024-05-09T09:50:02.308Z,16.12999916
2024-05-09T09:55:02.604Z,15.74999428
2024-05-09T10:00:05.620Z,14.74999428
2024-05-09T10:05:02.648Z,16.42998695
2024-05-09T10:10:03.366Z,18.20998573
2024-05-09T10:15:02.304Z,20.92998695
2024-05-09T10:20:04.091Z,19.39000893
2024-05-09T10:25:04.831Z,17.11001015
2024-05-09T10:30:06.753Z,23.79000282
2024-05-09T10:35:02.429Z,18.79000282
2024-05-09T10:40:05.498Z,24.99001503
2024-05-09T10:45:02.452Z,28.12999916
2024-05-09T10:50:03.695Z,23.05001259
2024-05-09T10:55:05.610Z,26.9699955
2024-05-09T11:00:02.117Z,17.5700016
2024-05-09T11:05:02.514Z,16.74999428
2024-05-09T11:10:03.034Z,17.68999672
2024-05-09T11:15:02.628Z,21.23000526
2024-05-09T11:20:08.113Z,26.90999794
2024-05-09T11:25:03.256Z,25.40999794
2024-05-09T11:30:04.184Z,27.79000282
2024-05-09T11:35:02.678Z,28.58999062
2024-05-09T11:40:04.358Z,28.95000648
2024-05-09T11:45:02.995Z,30.42998695
2024-05-09T11:50:02.670Z,28.3699894
2024-05-09T11:55:02.788Z,29.39000893
2024-05-09T12:00:04.204Z,22.52999306
2024-05-09T12:05:02.737Z,21.77001381
2024-05-09T12:10:06.095Z,26.49001503
2024-05-09T12:15:03.102Z,28.74999428
2024-05-09T12:20:03.183Z,29.29000282
2024-05-09T12:25:02.443Z,26.29000282
2024-05-09T12:30:03.357Z,26.23000526
2024-05-09T12:35:02.760Z,27.29000282
2024-05-09T12:40:03.878Z,25.85000038
2024-05-09T12:45:02.188Z,17.79000282
2024-05-09T12:50:03.803Z,17.40999794
2024-05-09T12:55:02.416Z,26.08999062
2024-05-09T13:00:04.065Z,18.90999794
2024-05-09T13:05:02.756Z,18.11001015
2024-05-09T13:10:02.376Z,26.61001015
2024-05-09T13:15:02.637Z,26.17000771
2024-05-09T13:20:04.280Z,25.0700016
2024-05-09T13:25:02.717Z,25.8699894
2024-05-09T13:30:03.071Z,24.45000648
2024-05-09T13:35:03.336Z,24.35000038
2024-05-09T13:40:03.356Z,24.39000893
2024-05-09T13:45:02.516Z,22.35000038
2024-05-09T13:50:03.799Z,22.05001259
2024-05-09T13:55:02.471Z,22.80999184
2024-05-09T14:00:03.777Z,20.95000648
2024-05-09T14:05:02.471Z,20.11001015
2024-05-09T14:10:03.993Z,19.61001015
2024-05-09T14:15:02.325Z,20.80999184
2024-05-09T14:20:03.105Z,20.30999184
2024-05-09T14:25:03.166Z,20.23000526
2024-05-09T14:30:04.222Z,18.05001259
2024-05-09T14:35:03.099Z,17.05001259
2024-05-09T14:40:02.938Z,19.17000771
2024-05-09T14:45:02.986Z,18.20998573
2024-05-09T14:50:02.218Z,18.27001381
2024-05-09T14:55:02.542Z,18.8699894
2024-05-09T15:00:03.833Z,18.52999306
2024-05-09T15:05:02.615Z,18.27001381
2024-05-09T15:10:04.708Z,18.42998695
2024-05-09T15:15:03.081Z,18.80999184
2024-05-09T15:20:02.424Z,18.68999672
2024-05-09T15:25:02.754Z,18.30999184
2024-05-09T15:30:05.591Z,18.4699955
2024-05-09T15:35:02.623Z,17.08999062
2024-05-09T15:40:04.190Z,17.40999794
2024-05-09T15:45:02.648Z,17.27001381
2024-05-09T15:50:03.727Z,17.62999916
2024-05-09T15:55:02.478Z,17.73000526
2024-05-09T16:00:04.557Z,17.33001137
2024-05-09T16:05:02.310Z,16.90999794
2024-05-09T16:10:04.153Z,15.20998573
2024-05-09T16:15:02.487Z,15.29000282
2024-05-09T16:20:03.903Z,15.20998573
2024-05-09T16:25:03.118Z,14.90999794
2024-05-09T16:30:04.030Z,15.05001259
2024-05-09T16:35:02.780Z,14.24999428
2024-05-09T16:40:04.207Z,14.64998817
2024-05-09T16:45:02.638Z,14.20998573
2024-05-09T16:50:03.742Z,14.58999062
2024-05-09T16:55:02.614Z,14.30999184
2024-05-09T17:00:04.359Z,15.8699894
2024-05-09T17:05:03.075Z,15.4699955
2024-05-09T17:10:03.082Z,15.45000648
2024-05-09T17:15:02.221Z,14.39000893
2024-05-09T17:20:03.745Z,14.35000038
2024-05-09T17:25:03.116Z,14.14998817
2024-05-09T17:30:03.285Z,14.85000038
2024-05-09T17:35:02.929Z,15.30999184
2024-05-09T17:40:02.647Z,14.79000282
2024-05-09T17:45:02.479Z,14.64998817
2024-05-09T17:50:02.756Z,13.70998573
2024-05-09T17:55:02.996Z,12.90999794
2024-05-09T18:00:04.024Z,12.23000526
2024-05-09T18:05:02.884Z,11.64998817
2024-05-09T18:10:02.434Z,11.30999184
2024-05-09T18:15:02.806Z,11.20998573
2024-05-09T18:20:03.771Z,10.70998573
2024-05-09T18:25:02.186Z,10.5700016
2024-05-09T18:30:03.155Z,10.4699955
2024-05-09T18:35:02.518Z,9.950006485
2024-05-09T18:40:03.381Z,9.610010147
2024-05-09T18:45:02.477Z,9.290002823
2024-05-09T18:50:02.982Z,9.149988174
2024-05-09T18:55:02.875Z,8.969995499
2024-05-09T19:00:04.224Z,8.790002823
2024-05-09T19:05:02.908Z,8.589990616
2024-05-09T19:10:02.247Z,8.450006485
2024-05-09T19:15:02.452Z,8.369989395
2024-05-09T19:20:04.524Z,8.189996719
2024-05-09T19:25:02.934Z,8.010004044
2024-05-09T19:30:03.147Z,8.010004044
2024-05-09T19:35:02.448Z,8.189996719
2024-05-09T19:40:03.513Z,8.330011368
2024-05-09T19:45:02.502Z,8.230005264
2024-05-09T19:50:02.857Z,7.950006008
2024-05-09T19:55:02.584Z,7.589990139
2024-05-09T20:00:04.298Z,7.230004787
2024-05-09T20:05:03.085Z,6.909997463
2024-05-09T20:10:05.120Z,6.649987698
2024-05-09T20:15:02.467Z,6.349999905
2024-05-09T20:20:03.701Z,6.209985256
2024-05-09T20:25:02.952Z,6.209985256
2024-05-09T20:30:02.401Z,7.290002346
2024-05-09T20:35:02.650Z,7.469995022
2024-05-09T20:40:03.802Z,7.11000967
2024-05-09T20:45:02.218Z,6.209985256
2024-05-09T20:50:02.491Z,5.670007229
2024-05-09T20:55:02.854Z,5.409997463
2024-05-09T21:00:03.437Z,5.330010891
2024-05-09T21:05:03.172Z,5.230004787
2024-05-09T21:10:04.637Z,5.11000967
2024-05-09T21:15:02.650Z,5.11000967
2024-05-09T21:20:03.630Z,5.070001125
2024-05-09T21:25:02.993Z,5.070001125
2024-05-09T21:30:02.521Z,4.89000845
2024-05-09T21:35:02.590Z,4.709985256
2024-05-09T21:40:03.894Z,4.52999258
2024-05-09T21:45:02.315Z,4.450006008
2024-05-09T21:50:02.950Z,4.52999258
2024-05-09T21:55:02.369Z,4.409997463
2024-05-09T22:00:03.422Z,4.270013332
2024-05-09T22:05:02.944Z,4.070001125
2024-05-09T22:10:02.620Z,4.010003567
2024-05-09T22:15:02.417Z,3.849999905
2024-05-09T22:20:04.561Z,3.749993801
2024-05-09T22:25:02.783Z,3.89000845
2024-05-09T22:30:03.998Z,3.89000845
2024-05-09T22:35:02.666Z,3.749993801
2024-05-09T22:40:05.503Z,3.52999258
2024-05-09T22:45:02.844Z,3.52999258
2024-05-09T22:50:03.572Z,3.450006008
2024-05-09T22:55:02.598Z,3.450006008
2024-05-09T23:00:03.205Z,3.550012112
2024-05-09T23:05:02.504Z,3.550012112
2024-05-09T23:10:04.345Z,3.589990139
2024-05-09T23:15:02.940Z,3.589990139
2024-05-09T23:20:03.852Z,3.89000845
2024-05-09T23:25:02.807Z,4.709985256
2024-05-09T23:30:04.595Z,5.490014553
2024-05-09T23:35:02.576Z,6.39000845
2024-05-09T23:40:06.823Z,7.369988918
2024-05-09T23:45:02.307Z,7.969995022
2024-05-09T23:50:05.089Z,8.129999161
2024-05-09T23:55:03.225Z,8.089990616
